Daikoku — JD3247 — position and weather

sailwx.info

Track history (hours):
 
Tides and Currents Weather Stations Pressure Air Temp Water Temp Dewpoint Dewpoint Depression Visibility Wind Speed Wind Dir Waves Ship Positions

Daikoku

Last reported at 2015-May-22 07:30 UTC. Time now 2015-May-22 19:06 UTC.
Position N 34°37' E 134°60'.

Length 95 m; draft 3.5 m.

Type: Cargo ship. MMSI: 431003009.

Date/timePositionNaut miles runAvg speedWind from/ knotsBaromVisibWave heightAir tempDewpointWater temp
2015-May-22 07:30N 34°37' E 134°60'9 9.2
2015-May-22 06:33N 34°36' E 135°10'7 7.3
2015-May-22 05:33N 34°41' E 135°17'2 2.3
2015-May-22 04:33N 34°39' E 135°15'0 0.0
2015-May-22 02:28N 34°39' E 135°15'3 2.9
2015-May-22 01:33N 34°37' E 135°15'0 0.0
2015-May-22 00:29N 34°37' E 135°15'0 0.0
2015-May-21 23:29N 34°37' E 135°15'0 0.0
2015-May-21 22:32N 34°37' E 135°15'0 0.0
2015-May-21 21:32N 34°37' E 135°15'0 0.0
2015-May-21 20:32N 34°37' E 135°15'0 0.0
2015-May-21 19:31N 34°37' E 135°15'4 4.4
2015-May-21 18:33N 34°35' E 135°11'1211.7
2015-May-21 17:33N 34°36' E 134°56'4 0.1
2015-May-20 10:19N 34°37' E 135°01'1012.7
2015-May-20 09:33N 34°36' E 135°13'1010.3
2015-May-20 08:33N 34°38' E 135°25'1 0.8
2015-May-20 07:33N 34°37' E 135°24'5 4.8
2015-May-20 06:33N 34°36' E 135°18'5 4.6
2015-May-20 05:33N 34°41' E 135°17'3 2.6
2015-May-20 04:33N 34°39' E 135°15'0 0.0
2015-May-20 03:29N 34°39' E 135°15'2 2.1
2015-May-20 02:33N 34°41' E 135°16'0 0.4
2015-May-20 01:33N 34°41' E 135°17'4 4.3
2015-May-20 00:34N 34°37' E 135°15'0 0.0
2015-May-19 23:12N 34°37' E 135°15'0 0.0
2015-May-19 22:30N 34°37' E 135°15'2 2.0
2015-May-19 21:33N 34°35' E 135°13'1312.8
2015-May-19 20:34N 34°37' E 134°58'6 0.2
2015-May-18 10:34N 34°36' E 135°06'9 8.8
2015-May-18 09:34N 34°40' E 135°15'2 1.4
2015-May-18 08:29N 34°41' E 135°17'0 0.2
2015-May-18 07:33N 34°41' E 135°16'2 1.7
2015-May-18 06:18N 34°39' E 135°15'0 0.0
2015-May-18 05:30N 34°39' E 135°15'3 3.4
2015-May-18 04:33N 34°37' E 135°16'6 6.2
2015-May-18 03:33N 34°33' E 135°10'10 9.8
2015-May-18 02:30N 34°37' E 134°58'  
2015-May-15 07:22N 34°21' E 135°00'1011.9
2015-May-15 06:33N 34°28' E 135°08'1211.8
2015-May-15 05:33N 34°37' E 135°18'4 2.9
2015-May-15 04:19N 34°41' E 135°17'1 0.7
2015-May-15 03:33N 34°41' E 135°16'2 1.8
2015-May-15 02:32N 34°39' E 135°15'0 0.0
2015-May-15 01:26N 34°39' E 135°15'1 1.3
2015-May-15 00:33N 34°40' E 135°15'2 2.0
2015-May-14 23:29N 34°41' E 135°12'0 0.0
2015-May-14 22:17N 34°41' E 135°12'0 0.0
2015-May-14 21:29N 34°41' E 135°12'0 0.0
2015-May-14 20:29N 34°41' E 135°12'0 0.0
2015-May-14 19:29N 34°41' E 135°12'0 0.0
2015-May-14 18:29N 34°41' E 135°12'0 0.0
2015-May-14 17:29N 34°41' E 135°12'0 0.0
2015-May-14 16:29N 34°41' E 135°12'0 0.0
2015-May-14 15:23N 34°41' E 135°12'0 0.0
2015-May-14 14:29N 34°41' E 135°12'0 0.0
2015-May-14 13:29N 34°41' E 135°12'0 0.0
2015-May-14 12:29N 34°41' E 135°12'0 0.0
2015-May-14 11:29N 34°41' E 135°12'0 0.0
2015-May-14 10:29N 34°41' E 135°12'0 0.0
2015-May-14 09:29N 34°41' E 135°12'0 0.0
2015-May-14 08:29N 34°41' E 135°12'0 0.0
2015-May-14 07:29N 34°41' E 135°12'0 0.0
2015-May-14 06:29N 34°41' E 135°12'0 0.0
2015-May-14 05:29N 34°41' E 135°12'0 0.0
2015-May-14 04:29N 34°41' E 135°12'0 0.0
2015-May-14 03:17N 34°41' E 135°12'0 0.0
2015-May-14 02:23N 34°41' E 135°12'0 0.0
2015-May-14 01:29N 34°41' E 135°12'0 0.0
2015-May-14 00:29N 34°41' E 135°12'0 0.3
2015-May-13 23:33N 34°41' E 135°12'5 4.0
2015-May-13 22:23N 34°37' E 135°16'0 0.0
2015-May-13 21:29N 34°37' E 135°16'0 0.0
2015-May-13 20:29N 34°37' E 135°16'0 0.0
2015-May-13 19:29N 34°37' E 135°16'0 0.1
2015-May-13 18:23N 34°37' E 135°16'0 0.0
2015-May-13 17:29N 34°37' E 135°16'0 0.0
2015-May-13 16:29N 34°37' E 135°16'1 1.6
2015-May-13 15:33N 34°36' E 135°15'1312.8
2015-May-13 14:33N 34°37' E 134°59'  
Track history (hours):
 
Tides and Currents Weather Stations Pressure Air Temp Water Temp Dewpoint Dewpoint Depression Visibility Wind Speed Wind Dir Waves Ship Positions

Daikoku

Last reported at 2015-May-22 07:30 UTC. Time now 2015-May-22 19:06 UTC.
Position N 34°37' E 134°60'.

Length 95 m; draft 3.5 m.

Type: Cargo ship. MMSI: 431003009.

Date/timePositionNaut miles runAvg speedWind from/ knotsBaromVisibWave heightAir tempDewpointWater temp
2015-May-22 07:30N 34°37' E 134°60'9 9.2
2015-May-22 06:33N 34°36' E 135°10'7 7.3
2015-May-22 05:33N 34°41' E 135°17'2 2.3
2015-May-22 04:33N 34°39' E 135°15'0 0.0
2015-May-22 02:28N 34°39' E 135°15'3 2.9
2015-May-22 01:33N 34°37' E 135°15'0 0.0
2015-May-22 00:29N 34°37' E 135°15'0 0.0
2015-May-21 23:29N 34°37' E 135°15'0 0.0
2015-May-21 22:32N 34°37' E 135°15'0 0.0
2015-May-21 21:32N 34°37' E 135°15'0 0.0
2015-May-21 20:32N 34°37' E 135°15'0 0.0
2015-May-21 19:31N 34°37' E 135°15'4 4.4
2015-May-21 18:33N 34°35' E 135°11'1211.7
2015-May-21 17:33N 34°36' E 134°56'4 0.1
2015-May-20 10:19N 34°37' E 135°01'1012.7
2015-May-20 09:33N 34°36' E 135°13'1010.3
2015-May-20 08:33N 34°38' E 135°25'1 0.8
2015-May-20 07:33N 34°37' E 135°24'5 4.8
2015-May-20 06:33N 34°36' E 135°18'5 4.6
2015-May-20 05:33N 34°41' E 135°17'3 2.6
2015-May-20 04:33N 34°39' E 135°15'0 0.0
2015-May-20 03:29N 34°39' E 135°15'2 2.1
2015-May-20 02:33N 34°41' E 135°16'0 0.4
2015-May-20 01:33N 34°41' E 135°17'4 4.3
2015-May-20 00:34N 34°37' E 135°15'0 0.0
2015-May-19 23:12N 34°37' E 135°15'0 0.0
2015-May-19 22:30N 34°37' E 135°15'2 2.0
2015-May-19 21:33N 34°35' E 135°13'1312.8
2015-May-19 20:34N 34°37' E 134°58'6 0.2
2015-May-18 10:34N 34°36' E 135°06'9 8.8
2015-May-18 09:34N 34°40' E 135°15'2 1.4
2015-May-18 08:29N 34°41' E 135°17'0 0.2
2015-May-18 07:33N 34°41' E 135°16'2 1.7
2015-May-18 06:18N 34°39' E 135°15'0 0.0
2015-May-18 05:30N 34°39' E 135°15'3 3.4
2015-May-18 04:33N 34°37' E 135°16'6 6.2
2015-May-18 03:33N 34°33' E 135°10'10 9.8
2015-May-18 02:30N 34°37' E 134°58'  
2015-May-15 07:22N 34°21' E 135°00'1011.9
2015-May-15 06:33N 34°28' E 135°08'1211.8
2015-May-15 05:33N 34°37' E 135°18'4 2.9
2015-May-15 04:19N 34°41' E 135°17'1 0.7
2015-May-15 03:33N 34°41' E 135°16'2 1.8
2015-May-15 02:32N 34°39' E 135°15'0 0.0
2015-May-15 01:26N 34°39' E 135°15'1 1.3
2015-May-15 00:33N 34°40' E 135°15'2 2.0
2015-May-14 23:29N 34°41' E 135°12'0 0.0
2015-May-14 22:17N 34°41' E 135°12'0 0.0
2015-May-14 21:29N 34°41' E 135°12'0 0.0
2015-May-14 20:29N 34°41' E 135°12'0 0.0
2015-May-14 19:29N 34°41' E 135°12'0 0.0
2015-May-14 18:29N 34°41' E 135°12'0 0.0
2015-May-14 17:29N 34°41' E 135°12'0 0.0
2015-May-14 16:29N 34°41' E 135°12'0 0.0
2015-May-14 15:23N 34°41' E 135°12'0 0.0
2015-May-14 14:29N 34°41' E 135°12'0 0.0
2015-May-14 13:29N 34°41' E 135°12'0 0.0
2015-May-14 12:29N 34°41' E 135°12'0 0.0
2015-May-14 11:29N 34°41' E 135°12'0 0.0
2015-May-14 10:29N 34°41' E 135°12'0 0.0
2015-May-14 09:29N 34°41' E 135°12'0 0.0
2015-May-14 08:29N 34°41' E 135°12'0 0.0
2015-May-14 07:29N 34°41' E 135°12'0 0.0
2015-May-14 06:29N 34°41' E 135°12'0 0.0
2015-May-14 05:29N 34°41' E 135°12'0 0.0
2015-May-14 04:29N 34°41' E 135°12'0 0.0
2015-May-14 03:17N 34°41' E 135°12'0 0.0
2015-May-14 02:23N 34°41' E 135°12'0 0.0
2015-May-14 01:29N 34°41' E 135°12'0 0.0
2015-May-14 00:29N 34°41' E 135°12'0 0.3
2015-May-13 23:33N 34°41' E 135°12'5 4.0
2015-May-13 22:23N 34°37' E 135°16'0 0.0
2015-May-13 21:29N 34°37' E 135°16'0 0.0
2015-May-13 20:29N 34°37' E 135°16'0 0.0
2015-May-13 19:29N 34°37' E 135°16'0 0.1
2015-May-13 18:23N 34°37' E 135°16'0 0.0
2015-May-13 17:29N 34°37' E 135°16'0 0.0
2015-May-13 16:29N 34°37' E 135°16'1 1.6
2015-May-13 15:33N 34°36' E 135°15'1312.8
2015-May-13 14:33N 34°37' E 134°59'  

Dump ship's entire track history